createdAt,value
2018-10-06T00:00:27.513Z,19.47
2018-10-06T00:02:56.063Z,17.70
2018-10-06T00:05:24.678Z,19.87
2018-10-06T00:07:53.236Z,20.00
2018-10-06T00:10:21.799Z,19.80
2018-10-06T00:12:50.761Z,20.33
2018-10-06T00:15:19.276Z,19.53
2018-10-06T00:17:47.823Z,19.63
2018-10-06T00:20:16.456Z,19.50
2018-10-06T00:22:44.989Z,21.10
2018-10-06T00:25:13.541Z,20.47
2018-10-06T00:27:42.114Z,17.73
2018-10-06T00:30:10.684Z,19.00
2018-10-06T00:32:39.299Z,20.30
2018-10-06T00:35:07.918Z,19.13
2018-10-06T00:37:36.454Z,20.77
2018-10-06T00:40:05.097Z,21.13
2018-10-06T00:42:33.668Z,22.57
2018-10-06T00:45:02.241Z,21.23
2018-10-06T00:47:30.797Z,21.50
2018-10-06T00:49:59.322Z,21.73
2018-10-06T00:52:27.859Z,21.50
2018-10-06T00:54:56.396Z,24.67
2018-10-06T00:57:24.900Z,23.57
2018-10-06T00:59:53.758Z,24.73
2018-10-06T01:02:22.330Z,23.67
2018-10-06T01:04:50.919Z,23.63
2018-10-06T01:07:20.001Z,24.67
2018-10-06T01:09:48.579Z,24.87
2018-10-06T01:12:17.156Z,23.77
2018-10-06T01:14:45.724Z,23.20
2018-10-06T01:17:14.268Z,24.40
2018-10-06T01:19:42.800Z,22.90
2018-10-06T01:22:11.341Z,24.00
2018-10-06T01:24:39.888Z,25.07
2018-10-06T01:27:08.505Z,25.07
2018-10-06T01:29:37.079Z,24.30
2018-10-06T01:32:05.644Z,25.07
2018-10-06T01:34:34.460Z,23.40
2018-10-06T01:37:02.980Z,26.27
2018-10-06T01:39:31.825Z,25.97
2018-10-06T01:42:00.746Z,25.20
2018-10-06T01:44:29.298Z,27.07
2018-10-06T01:46:58.713Z,24.17
2018-10-06T01:49:27.248Z,26.00
2018-10-06T01:51:55.883Z,26.83
2018-10-06T01:54:24.525Z,26.87
2018-10-06T01:56:53.053Z,28.40
2018-10-06T01:59:21.631Z,25.47
2018-10-06T02:01:50.173Z,24.37
2018-10-06T02:04:23.271Z,25.87
2018-10-06T02:06:52.426Z,25.83
2018-10-06T02:09:21.008Z,25.40
2018-10-06T02:11:49.696Z,24.10
2018-10-06T02:14:18.253Z,22.77
2018-10-06T02:16:46.805Z,24.20
2018-10-06T02:19:15.340Z,24.03
2018-10-06T02:21:43.859Z,22.63
2018-10-06T02:24:12.400Z,21.70
2018-10-06T02:26:40.923Z,22.97
2018-10-06T02:29:09.450Z,23.70
2018-10-06T02:31:38.016Z,22.37
2018-10-06T02:34:06.669Z,22.63
2018-10-06T02:36:35.200Z,21.63
2018-10-06T02:39:04.361Z,21.47
2018-10-06T02:41:32.918Z,22.33
2018-10-06T02:44:01.461Z,24.13
2018-10-06T02:46:30.153Z,24.50
2018-10-06T02:48:58.701Z,22.57
2018-10-06T02:51:27.221Z,26.70
2018-10-06T02:53:55.781Z,26.67
2018-10-06T02:56:24.376Z,27.30
2018-10-06T02:58:52.910Z,29.20
2018-10-06T03:01:21.458Z,27.30
2018-10-06T03:03:49.995Z,27.47
2018-10-06T03:06:18.588Z,27.83
2018-10-06T03:08:47.148Z,28.97
2018-10-06T03:11:15.718Z,28.47
2018-10-06T03:13:44.306Z,31.20
2018-10-06T03:16:12.922Z,30.03
2018-10-06T03:18:41.428Z,30.47
2018-10-06T03:21:09.933Z,29.03
2018-10-06T03:23:38.875Z,27.77
2018-10-06T03:26:07.433Z,27.57
2018-10-06T03:28:35.930Z,26.67
2018-10-06T03:31:04.509Z,28.03
2018-10-06T03:33:33.081Z,27.70
2018-10-06T03:36:01.754Z,27.97
2018-10-06T03:38:30.420Z,27.67
2018-10-06T03:40:59.466Z,28.77
2018-10-06T03:43:27.995Z,25.53
2018-10-06T03:45:56.570Z,25.43
2018-10-06T03:48:25.118Z,28.17
2018-10-06T03:50:53.682Z,26.90
2018-10-06T03:53:22.256Z,26.33
2018-10-06T03:55:50.756Z,26.10
2018-10-06T03:58:19.384Z,25.90
2018-10-06T04:00:47.903Z,26.17
2018-10-06T04:03:16.523Z,25.43
2018-10-06T04:05:45.070Z,25.57
2018-10-06T04:08:13.598Z,25.27
2018-10-06T04:10:42.561Z,26.80
2018-10-06T04:13:11.088Z,27.03
2018-10-06T04:15:39.625Z,27.07
2018-10-06T04:18:08.163Z,26.90
2018-10-06T04:20:36.675Z,26.83
2018-10-06T04:23:05.273Z,25.87
2018-10-06T04:25:33.817Z,25.73
2018-10-06T04:28:02.366Z,26.53
2018-10-06T04:30:30.940Z,26.50
2018-10-06T04:32:59.551Z,26.33
2018-10-06T04:35:28.135Z,24.60
2018-10-06T04:37:56.683Z,25.80
2018-10-06T04:40:25.313Z,26.90
2018-10-06T04:42:54.481Z,24.70
2018-10-06T04:45:23.031Z,24.77
2018-10-06T04:47:51.545Z,23.87
2018-10-06T04:50:21.152Z,21.10
2018-10-06T04:52:50.051Z,23.20
2018-10-06T04:55:18.565Z,24.50
2018-10-06T04:57:47.113Z,27.90
2018-10-06T05:00:15.948Z,28.13
2018-10-06T05:02:44.508Z,28.03
2018-10-06T05:05:13.083Z,30.40
2018-10-06T05:07:41.656Z,31.10
2018-10-06T05:10:10.248Z,30.77
2018-10-06T05:12:38.838Z,32.73
2018-10-06T05:15:07.571Z,30.93
2018-10-06T05:17:36.141Z,29.30
2018-10-06T05:20:04.911Z,29.13
2018-10-06T05:22:33.494Z,27.87
2018-10-06T05:25:02.172Z,28.43
2018-10-06T05:27:30.753Z,25.87
2018-10-06T05:29:59.317Z,27.20
2018-10-06T05:32:27.812Z,25.70
2018-10-06T05:34:56.371Z,25.37
2018-10-06T05:37:25.156Z,26.97
2018-10-06T05:39:53.689Z,27.80
2018-10-06T05:42:22.191Z,26.97
2018-10-06T05:44:50.761Z,27.43
2018-10-06T05:47:19.309Z,25.90
2018-10-06T05:49:47.816Z,27.30
2018-10-06T05:52:16.326Z,27.33
2018-10-06T05:54:44.853Z,28.57
2018-10-06T05:57:13.418Z,28.93
2018-10-06T05:59:41.940Z,27.57
2018-10-06T06:02:10.596Z,25.33
2018-10-06T06:04:39.110Z,24.27
2018-10-06T06:07:07.911Z,22.10
2018-10-06T06:09:36.501Z,21.67
2018-10-06T06:12:05.046Z,24.93
2018-10-06T06:14:33.621Z,26.47
2018-10-06T06:17:02.194Z,26.00
2018-10-06T06:19:30.723Z,25.17
2018-10-06T06:21:59.224Z,27.13
2018-10-06T06:24:28.668Z,27.57
2018-10-06T06:26:57.199Z,27.13
2018-10-06T06:29:25.712Z,25.83
2018-10-06T06:31:54.243Z,28.27
2018-10-06T06:34:22.788Z,28.17
2018-10-06T06:36:51.348Z,29.43
2018-10-06T06:39:19.930Z,31.53
2018-10-06T06:41:48.488Z,28.73
2018-10-06T06:44:17.053Z,32.37
2018-10-06T06:46:45.576Z,29.87
2018-10-06T06:49:14.147Z,26.43
2018-10-06T06:51:42.750Z,27.00
2018-10-06T06:54:11.249Z,29.43
2018-10-06T06:56:39.748Z,30.93
2018-10-06T06:59:08.293Z,29.73
2018-10-06T07:01:36.858Z,30.40
2018-10-06T07:04:05.466Z,28.87
2018-10-06T07:06:34.000Z,29.00
2018-10-06T07:09:02.723Z,28.53
2018-10-06T07:11:31.252Z,28.93
2018-10-06T07:13:59.781Z,28.47
2018-10-06T07:16:28.318Z,25.90
2018-10-06T07:18:56.834Z,28.53
2018-10-06T07:21:25.393Z,23.40
2018-10-06T07:23:53.908Z,17.57
2018-10-06T07:26:22.853Z,20.87
2018-10-06T07:28:51.374Z,19.63
2018-10-06T07:31:19.880Z,19.47
2018-10-06T07:33:48.430Z,20.43
2018-10-06T07:36:16.976Z,18.63
2018-10-06T07:38:45.520Z,17.97
2018-10-06T07:41:14.053Z,16.50
2018-10-06T07:43:42.629Z,15.90
2018-10-06T07:46:11.156Z,16.33
2018-10-06T07:48:39.776Z,17.97
2018-10-06T07:51:08.335Z,19.13
2018-10-06T07:53:37.690Z,20.33
2018-10-06T07:56:07.202Z,20.33
2018-10-06T07:58:35.844Z,19.00
2018-10-06T08:01:04.395Z,20.67
2018-10-06T08:03:33.018Z,21.87
2018-10-06T08:06:01.616Z,21.70
2018-10-06T08:08:30.181Z,22.17
2018-10-06T08:10:58.866Z,22.27
2018-10-06T08:13:27.356Z,21.20
2018-10-06T08:15:55.887Z,21.23
2018-10-06T08:18:24.421Z,21.77
2018-10-06T08:20:53.346Z,20.10
2018-10-06T08:23:21.873Z,19.93
2018-10-06T08:25:50.448Z,20.13
2018-10-06T08:28:18.993Z,19.40
2018-10-06T08:30:47.543Z,18.13
2018-10-06T08:33:16.060Z,16.50
2018-10-06T08:35:44.606Z,16.37
2018-10-06T08:38:13.158Z,15.63
2018-10-06T08:40:41.762Z,15.53
2018-10-06T08:43:10.388Z,14.50
2018-10-06T08:45:38.928Z,14.23
2018-10-06T08:48:07.488Z,15.67
2018-10-06T08:50:35.986Z,15.77
2018-10-06T08:53:04.500Z,15.57
2018-10-06T08:55:33.086Z,15.10
2018-10-06T08:58:01.656Z,15.80
2018-10-06T09:00:30.168Z,16.20
2018-10-06T09:02:58.763Z,15.57
2018-10-06T09:05:27.331Z,14.90
2018-10-06T09:07:55.905Z,14.27
2018-10-06T09:10:24.421Z,14.00
2018-10-06T09:12:52.920Z,14.43
2018-10-06T09:15:21.456Z,14.63
2018-10-06T09:17:49.983Z,13.00
2018-10-06T09:20:18.513Z,14.50
2018-10-06T09:22:47.051Z,15.53
2018-10-06T09:25:15.571Z,15.70
2018-10-06T09:27:44.245Z,12.60
2018-10-06T09:30:12.868Z,12.10
2018-10-06T09:32:41.408Z,14.47
2018-10-06T09:35:09.986Z,14.57
2018-10-06T09:37:38.506Z,13.97
2018-10-06T09:40:07.078Z,14.17
2018-10-06T09:42:35.735Z,15.33
2018-10-06T09:45:04.280Z,16.07
2018-10-06T09:47:32.905Z,16.13
2018-10-06T09:50:01.456Z,17.10
2018-10-06T09:52:29.998Z,17.13
2018-10-06T09:54:58.531Z,17.93
2018-10-06T09:57:27.113Z,15.13
2018-10-06T09:59:55.697Z,15.97
2018-10-06T10:02:29.631Z,14.53
2018-10-06T10:05:03.621Z,14.30
2018-10-06T10:07:34.171Z,17.10
2018-10-06T10:10:04.154Z,17.07
2018-10-06T10:12:32.627Z,16.60
2018-10-06T10:15:01.191Z,17.47
2018-10-06T10:17:29.844Z,17.13
2018-10-06T10:19:58.530Z,15.83
2018-10-06T10:22:27.320Z,15.33
2018-10-06T10:24:55.715Z,17.90
2018-10-06T10:27:24.268Z,17.70
2018-10-06T10:29:52.858Z,15.93
2018-10-06T10:32:21.464Z,15.13
2018-10-06T10:34:50.241Z,14.23
2018-10-06T10:37:18.870Z,13.20
2018-10-06T10:39:47.500Z,13.30
2018-10-06T10:42:16.096Z,12.57
2018-10-06T10:44:44.604Z,13.90
2018-10-06T10:47:13.411Z,15.97
2018-10-06T10:49:42.208Z,13.90
2018-10-06T10:52:10.832Z,14.00
2018-10-06T10:54:39.584Z,14.00
2018-10-06T10:57:08.161Z,16.30
2018-10-06T10:59:36.990Z,19.17
2018-10-06T11:02:05.655Z,17.83
2018-10-06T11:04:34.286Z,15.07
2018-10-06T11:07:02.937Z,13.67
2018-10-06T11:09:31.833Z,14.07
2018-10-06T11:12:00.458Z,15.50
2018-10-06T11:14:28.981Z,15.80
2018-10-06T11:16:57.607Z,15.37
2018-10-06T11:19:26.221Z,12.20
2018-10-06T11:21:55.634Z,11.57
2018-10-06T11:24:24.171Z,11.80
2018-10-06T11:26:53.343Z,12.40
2018-10-06T11:29:22.450Z,12.67
2018-10-06T11:31:51.039Z,13.53
2018-10-06T11:34:19.640Z,10.00
2018-10-06T11:36:48.336Z,11.93
2018-10-06T11:39:16.853Z,12.43
2018-10-06T11:41:46.011Z,13.67
2018-10-06T11:44:14.872Z,13.53
2018-10-06T11:46:43.853Z,13.63
2018-10-06T11:49:12.477Z,13.10
2018-10-06T11:51:41.056Z,13.03
2018-10-06T11:54:09.590Z,13.40
2018-10-06T11:56:38.143Z,12.07
2018-10-06T11:59:06.773Z,13.63
2018-10-06T12:01:36.481Z,14.70
2018-10-06T12:04:05.113Z,15.10
2018-10-06T12:06:33.770Z,12.43
2018-10-06T12:09:02.421Z,13.77
2018-10-06T12:11:31.046Z,16.20
2018-10-06T12:13:59.634Z,13.93
2018-10-06T12:16:28.307Z,15.87
2018-10-06T12:18:56.930Z,15.63
2018-10-06T12:34:34.627Z,13.13
2018-10-06T12:37:03.128Z,16.17
2018-10-06T12:39:32.329Z,13.27
2018-10-06T12:42:00.890Z,13.53
2018-10-06T12:44:29.544Z,14.03
2018-10-06T12:46:58.126Z,12.00
2018-10-06T12:49:28.455Z,11.80
2018-10-06T12:52:01.144Z,12.40
2018-10-06T12:54:29.729Z,12.40
2018-10-06T12:56:59.389Z,13.87
2018-10-06T12:59:28.015Z,14.80
2018-10-06T13:01:56.636Z,13.40
2018-10-06T13:04:25.493Z,20.73
2018-10-06T13:06:54.014Z,17.10
2018-10-06T13:09:22.591Z,16.93
2018-10-06T13:11:51.366Z,14.80
2018-10-06T13:14:20.268Z,16.07
2018-10-06T13:16:49.010Z,14.83
2018-10-06T13:19:17.593Z,14.60
2018-10-06T13:21:46.189Z,12.90
2018-10-06T13:24:14.884Z,11.73
2018-10-06T13:26:43.943Z,13.53
2018-10-06T13:29:12.593Z,11.73
2018-10-06T13:31:41.345Z,14.00
2018-10-06T13:34:09.895Z,16.70
2018-10-06T13:36:38.516Z,14.90
2018-10-06T13:39:08.664Z,12.53
2018-10-06T13:41:37.546Z,11.47
2018-10-06T13:44:06.158Z,7.33
2018-10-06T13:46:35.765Z,8.40
2018-10-06T13:49:04.319Z,7.27
2018-10-06T13:51:32.923Z,7.23
2018-10-06T13:54:01.597Z,7.40
2018-10-06T13:56:30.173Z,7.73
2018-10-06T13:58:58.807Z,6.03
2018-10-06T14:01:27.462Z,5.70
2018-10-06T14:03:56.084Z,5.60
2018-10-06T14:06:24.776Z,5.70
2018-10-06T14:08:53.873Z,5.33
2018-10-06T14:11:22.443Z,5.07
2018-10-06T14:13:51.022Z,5.40
2018-10-06T14:16:19.951Z,5.23
2018-10-06T14:18:48.535Z,4.90
2018-10-06T14:21:17.496Z,5.73
2018-10-06T14:23:46.102Z,5.00
2018-10-06T14:26:15.682Z,6.30
2018-10-06T14:28:44.275Z,4.50
2018-10-06T14:31:13.187Z,4.77
2018-10-06T14:33:41.774Z,4.57
2018-10-06T14:36:10.998Z,4.87
2018-10-06T14:38:40.291Z,4.70
2018-10-06T14:41:08.979Z,5.80
2018-10-06T14:43:37.683Z,4.87
2018-10-06T14:46:08.141Z,6.00
2018-10-06T14:48:36.701Z,5.50
2018-10-06T14:51:05.402Z,4.73
2018-10-06T14:53:34.018Z,6.97
2018-10-06T14:56:02.673Z,4.73
2018-10-06T14:58:31.236Z,5.50
2018-10-06T15:00:59.881Z,5.20
2018-10-06T15:03:28.504Z,5.80
2018-10-06T15:05:57.085Z,5.27
2018-10-06T15:08:25.656Z,4.53
2018-10-06T15:10:54.212Z,5.40
2018-10-06T15:13:23.135Z,4.17
2018-10-06T15:15:51.735Z,3.70
2018-10-06T15:18:20.319Z,5.37
2018-10-06T15:20:48.913Z,3.73
2018-10-06T15:23:17.532Z,3.70
2018-10-06T15:25:46.139Z,3.40
2018-10-06T15:28:15.341Z,3.50
2018-10-06T15:30:43.844Z,3.60
2018-10-06T15:33:12.439Z,3.47
2018-10-06T15:35:41.090Z,3.10
2018-10-06T15:38:10.622Z,3.27
2018-10-06T15:40:39.700Z,3.07
2018-10-06T15:43:08.986Z,3.17
2018-10-06T15:45:37.617Z,3.03
2018-10-06T15:48:06.256Z,3.27
2018-10-06T15:50:34.855Z,3.10
2018-10-06T15:53:03.659Z,3.13
2018-10-06T15:55:32.338Z,3.40
2018-10-06T15:58:01.011Z,3.27
2018-10-06T16:00:30.205Z,2.90
2018-10-06T16:02:59.863Z,3.20
2018-10-06T16:05:28.454Z,3.23
2018-10-06T16:07:57.055Z,3.43
2018-10-06T16:10:25.695Z,3.27
2018-10-06T16:12:54.898Z,3.47
2018-10-06T16:15:23.828Z,3.83
2018-10-06T16:17:52.393Z,4.20
2018-10-06T16:20:21.220Z,4.00
2018-10-06T16:22:49.810Z,4.50
2018-10-06T16:25:18.948Z,4.07
2018-10-06T16:27:48.025Z,4.00
2018-10-06T16:30:16.736Z,4.00
2018-10-06T16:32:45.428Z,4.00
2018-10-06T16:35:14.042Z,4.53
2018-10-06T16:37:42.653Z,5.30
2018-10-06T16:40:11.842Z,5.60
2018-10-06T16:42:40.439Z,5.00
2018-10-06T16:45:09.194Z,5.30
2018-10-06T16:47:38.583Z,6.20
2018-10-06T16:50:07.654Z,4.90
2018-10-06T16:52:36.231Z,5.20
2018-10-06T16:55:04.846Z,4.93
2018-10-06T16:57:33.458Z,6.80
2018-10-06T17:00:02.104Z,8.33
2018-10-06T17:02:30.639Z,5.83
2018-10-06T17:04:59.163Z,5.40
2018-10-06T17:07:28.355Z,5.47
2018-10-06T17:09:56.898Z,7.60
2018-10-06T17:12:25.821Z,5.80
2018-10-06T17:14:55.058Z,6.40
2018-10-06T17:17:23.665Z,5.90
2018-10-06T17:19:56.564Z,5.67
2018-10-06T17:22:26.569Z,7.40
2018-10-06T17:24:55.585Z,7.37
2018-10-06T17:27:25.566Z,7.10
2018-10-06T17:29:54.183Z,7.30
2018-10-06T17:32:22.775Z,7.20
2018-10-06T17:34:51.571Z,7.10
2018-10-06T17:37:20.303Z,7.53
2018-10-06T17:39:49.751Z,7.63
2018-10-06T17:42:18.455Z,7.33
2018-10-06T17:44:47.946Z,6.97
2018-10-06T17:47:17.307Z,7.07
2018-10-06T17:49:45.965Z,6.50
2018-10-06T17:52:14.521Z,7.13
2018-10-06T17:54:52.005Z,6.90
2018-10-06T17:57:21.491Z,6.73
2018-10-06T17:59:50.248Z,7.20
2018-10-06T18:02:18.928Z,6.97
2018-10-06T18:04:48.836Z,6.47
2018-10-06T18:07:18.042Z,6.10
2018-10-06T18:09:47.416Z,6.37
2018-10-06T18:12:15.998Z,6.73
2018-10-06T18:14:44.641Z,7.10
2018-10-06T18:17:13.420Z,6.80
2018-10-06T18:19:42.183Z,7.47
2018-10-06T18:22:10.852Z,8.17
2018-10-06T18:24:40.425Z,8.30
2018-10-06T18:27:09.033Z,8.27
2018-10-06T18:29:37.678Z,7.73
2018-10-06T18:32:06.324Z,8.33
2018-10-06T18:34:36.008Z,8.87
2018-10-06T18:37:05.354Z,8.77
2018-10-06T18:39:34.786Z,9.83
2018-10-06T18:42:03.461Z,9.00
2018-10-06T18:44:32.076Z,9.07
2018-10-06T18:47:00.743Z,9.13
2018-10-06T18:49:30.064Z,8.40
2018-10-06T18:51:58.696Z,9.10
2018-10-06T18:54:27.958Z,8.17
2018-10-06T18:56:57.198Z,8.37
2018-10-06T18:59:25.823Z,9.03
2018-10-06T19:01:54.593Z,9.43
2018-10-06T19:04:23.310Z,9.17
2018-10-06T19:06:51.995Z,9.30
2018-10-06T19:09:20.565Z,9.27
2018-10-06T19:11:49.166Z,10.40
2018-10-06T19:14:17.837Z,10.40
2018-10-06T19:16:46.561Z,10.73
2018-10-06T19:19:15.891Z,11.30
2018-10-06T19:21:44.514Z,11.77
2018-10-06T19:24:13.156Z,12.10
2018-10-06T19:26:41.872Z,12.90
2018-10-06T19:29:11.223Z,12.77
2018-10-06T19:31:39.951Z,12.73
2018-10-06T19:34:08.693Z,12.83
2018-10-06T19:36:37.502Z,13.70
2018-10-06T19:39:08.758Z,12.83
2018-10-06T19:41:38.084Z,13.00
2018-10-06T19:44:06.886Z,13.57
2018-10-06T19:46:35.780Z,13.90
2018-10-06T19:49:04.971Z,13.97
2018-10-06T19:51:34.782Z,12.63
2018-10-06T19:54:04.828Z,12.77
2018-10-06T19:56:33.610Z,12.20
2018-10-06T19:59:03.226Z,12.53
2018-10-06T20:01:32.035Z,12.30
2018-10-06T20:04:01.419Z,12.43
2018-10-06T20:06:30.206Z,11.33
2018-10-06T20:08:59.691Z,11.33
2018-10-06T20:11:28.988Z,9.30
2018-10-06T20:13:57.676Z,9.50
2018-10-06T20:16:26.454Z,9.67
2018-10-06T20:18:55.186Z,8.93
2018-10-06T20:21:23.826Z,9.03
2018-10-06T20:23:52.526Z,8.80
2018-10-06T20:26:21.944Z,9.70
2018-10-06T20:28:50.581Z,11.10
2018-10-06T20:31:19.406Z,9.77
2018-10-06T20:33:48.045Z,8.97
2018-10-06T20:36:16.704Z,10.27
2018-10-06T20:38:45.329Z,9.80
2018-10-06T20:41:14.909Z,9.00
2018-10-06T20:43:44.321Z,9.50
2018-10-06T20:46:13.118Z,8.77
2018-10-06T20:48:42.165Z,9.87
2018-10-06T20:51:10.836Z,9.30
2018-10-06T20:53:39.511Z,9.33
2018-10-06T20:56:08.368Z,8.50
2018-10-06T20:58:36.973Z,9.40
2018-10-06T21:01:05.616Z,9.57
2018-10-06T21:03:34.356Z,9.50
2018-10-06T21:06:03.068Z,10.03
2018-10-06T21:08:31.803Z,10.47
2018-10-06T21:11:00.701Z,11.70
2018-10-06T21:13:29.433Z,12.00
2018-10-06T21:15:58.123Z,12.10
2018-10-06T21:18:27.887Z,12.20
2018-10-06T21:20:56.545Z,12.23
2018-10-06T21:23:25.745Z,12.93
2018-10-06T21:25:55.259Z,13.17
2018-10-06T21:28:23.836Z,14.00
2018-10-06T21:30:53.992Z,14.70
2018-10-06T21:33:22.689Z,13.67
2018-10-06T21:35:51.355Z,14.43
2018-10-06T21:38:19.988Z,14.13
2018-10-06T21:40:48.666Z,15.00
2018-10-06T21:43:17.716Z,14.87
2018-10-06T21:45:46.331Z,14.43
2018-10-06T21:48:14.959Z,14.73
2018-10-06T21:50:43.693Z,14.47
2018-10-06T21:53:12.309Z,13.33
2018-10-06T21:55:40.931Z,13.90
2018-10-06T21:58:13.424Z,14.10
2018-10-06T22:00:42.029Z,12.90
2018-10-06T22:03:10.684Z,13.13
2018-10-06T22:05:40.116Z,14.50
2018-10-06T22:08:10.284Z,13.10
2018-10-06T22:10:38.993Z,13.20
2018-10-06T22:13:07.671Z,13.47
2018-10-06T22:15:36.399Z,13.53
2018-10-06T22:18:05.104Z,13.43
2018-10-06T22:20:33.861Z,13.80
2018-10-06T22:23:08.603Z,14.83
2018-10-06T22:25:37.216Z,16.63
2018-10-06T22:28:05.962Z,15.83
2018-10-06T22:30:34.612Z,15.23
2018-10-06T22:33:03.153Z,17.77
2018-10-06T22:35:31.765Z,16.83
2018-10-06T22:38:00.349Z,15.77
2018-10-06T22:40:29.062Z,15.77
2018-10-06T22:42:57.969Z,17.57
2018-10-06T22:45:26.565Z,16.53
2018-10-06T22:47:55.214Z,16.77
2018-10-06T22:50:24.364Z,17.57
2018-10-06T22:52:52.945Z,17.50
2018-10-06T22:55:21.599Z,16.43
2018-10-06T22:57:50.139Z,16.17
2018-10-06T23:00:18.769Z,14.53
2018-10-06T23:02:47.426Z,14.13
2018-10-06T23:05:16.045Z,13.53
2018-10-06T23:07:46.616Z,12.90
2018-10-06T23:10:26.201Z,13.13
2018-10-06T23:13:02.955Z,12.90
2018-10-06T23:15:31.674Z,13.63
2018-10-06T23:18:00.275Z,13.03
2018-10-06T23:20:29.526Z,13.63
2018-10-06T23:22:58.072Z,12.60
2018-10-06T23:25:26.646Z,12.87
2018-10-06T23:27:55.227Z,12.37
2018-10-06T23:30:23.887Z,12.77
2018-10-06T23:32:52.552Z,13.43
2018-10-06T23:35:21.110Z,12.30
2018-10-06T23:37:49.754Z,12.93
2018-10-06T23:40:18.290Z,13.43
2018-10-06T23:42:46.869Z,14.17
2018-10-06T23:45:15.427Z,12.20
2018-10-06T23:47:43.957Z,9.67
2018-10-06T23:50:12.550Z,11.00
2018-10-06T23:52:41.121Z,10.40
2018-10-06T23:55:09.665Z,11.07
2018-10-06T23:57:38.253Z,11.13
